Terminal Aerodrome Forecast
Issued by NWS Twin Cities, MN

Home | Current Version | Previous Version | Graphics & Text | Print | Product List | Glossary On
Versions: 1 2 3 4 5 6 7 8 9 10 11 12 13 14 15 16 17 18 19 20 21 22 23
342
FTUS43 KMPX 261729
TAFMSP
TAF
KMSP 261729Z 2618/2724 35012G18KT P6SM SCT009 BKN015 OVC020
     FM270200 33008KT P6SM SCT008 OVC012
      TEMPO 2702/2706 -SN
     FM271700 30009KT P6SM BKN020
     FM272000 29009KT P6SM BKN035=

USA.gov is the U.S. government's official web portal to all federal, state and local government web resources and services.